HOURLY OBS INDEX

002

Kimberley - east

ARGYLE AERODROME

Site: 002064
Alt: 164.0m
101km SSW of KUNUNURRA


  Time     Wind        Temp  DP   Baro     Rain since   Rain past  Vis(m), Cloud(base in m), Weather
  local        km/h                         9am  last   hr   10m    
Tue 12:00    N  7/ 15  35.5 19.4  1007.9    0.0   0.0   0.0   0.0   10000 
Tue 12:30  WSW  7/ 13  36.9 18.9  1007.3    0.0   0.0   0.0   0.0   10000 
Tue 12:30  WSW  7/ 13  36.9 18.9  1007.3    0.0   0.0  ----   0.0   10000 
Tue 13:00   NE  6/ 11  37.4 18.4  1006.9    0.0   0.0   0.0   0.0   10000 
Tue 13:00   NE  6/ 11  37.4 18.4  1006.9    0.0   0.0  ----   0.0   10000 
Tue 13:30    N 11/ 17  37.7 17.1  1006.6    0.0   0.0   0.0   0.0   10000 
Tue 14:00   NE 13/ 20  36.5 17.6  1006.3    0.0   0.0   0.0   0.0   10000|SC2280 SC2700 
Tue 14:30  NNE  4/ 13  37.6 16.5  1006.0    0.0   0.0   0.0   0.0   10000 
Tue 15:00   NE  9/ 17  37.9 14.5  1005.8    0.0   0.0   0.0   0.0   10000|SC2790 
Tue 15:30    S 13/ 20  37.0 17.1  1006.0    0.0   0.0   0.0   0.0   10000|BR2940 
Tue 16:00  ESE  7/ 13  37.2 15.1  1005.8    0.0   0.0   0.0   0.0   10000 
Tue 16:30   NE  9/ 15  37.1 14.4  1005.8    0.0   0.0   0.0   0.0   10000 
Tue 16:30   NE  9/ 15  37.1 14.4  1005.8    0.0   0.0  ----   0.0   10000 
Tue 16:30   NE  9/ 15  37.1 14.4  1005.8    0.0   0.0  ----   0.0   10000 
Tue 16:30   NE  9/ 15  37.1 14.4  1005.8    0.0   0.0  ----   0.0   10000 
Tue 17:00   NE  7/  9  35.7 13.8  1006.0    0.0   0.0   0.0   0.0   10000|SC3450 
Tue 17:30  NNE 13/ 17  34.6 13.4  1006.3    0.0   0.0   0.0   0.0   10000 

HALLS CREEK AIRPORT

Site: 002079
Alt: 409.4m
km of


  Time     Wind        Temp  DP   Baro     Rain since   Rain past  Vis(m), Cloud(base in m), Weather
  local        km/h                         9am  last   hr   10m    
Tue 12:00    N 17/ 24  35.9 12.8  1009.0    0.0   0.0   0.0   0.0   10000 
Tue 12:30  ESE 11/ 19  36.7 11.5  1008.5    0.0   0.0   0.0   0.0   10000 
Tue 12:30  ESE 11/ 19  36.7 11.5  1008.5    0.0   0.0  ----   0.0   10000 
Tue 13:00    E 20/ 32  38.1 12.7  1008.0    0.0   0.0   0.0   0.0   10000|SC3000 
Tue 13:00    E 20/ 32  38.1 12.7  1008.0    0.0   0.0  ----   0.0   10000|SC3000 
Tue 13:30    N 15/ 22  37.7  9.3  1007.6    0.0   0.0   0.0   0.0   10000 
Tue 14:00    N 13/ 20  37.3 11.3  1007.2    0.0   0.0   0.0   0.0   10000 
Tue 14:30    E 22/ 32  38.2  8.9  1007.0    0.0   0.0   0.0   0.0   10000 
Tue 15:00   NE 17/ 30  38.3  7.1  1006.9    0.0   0.0   0.0   0.0   10000 
Tue 15:30   NE  9/ 19  37.8  9.4  1006.9    0.0   0.0   0.0   0.0   10000 
Tue 16:00    E 19/ 24  37.6  7.5  1006.9    0.0   0.0   0.0   0.0   10000 
Tue 16:30   NE  6/ 15  37.4  9.9  1006.9    0.0   0.0   0.0   0.0   10000 
Tue 16:30   NE  6/ 15  37.4  9.9  1006.9    0.0   0.0  ----   0.0   10000 
Tue 16:30   NE  6/ 15  37.4  9.9  1006.9    0.0   0.0  ----   0.0   10000 
Tue 16:30   NE  6/ 15  37.4  9.9  1006.9    0.0   0.0  ----   0.0   10000 
Tue 17:00  ENE 13/ 19  36.8  8.6  1006.9    0.0   0.0   0.0   0.0   10000 
Tue 17:30   NE 13/ 19  36.0  8.0  1007.2    0.0   0.0   0.0   0.0   10000 

KUNUNURRA AERO

Site: 002056
Alt: 44.0m
3km WSW of KUNUNURRA


  Time     Wind        Temp  DP   Baro     Rain since   Rain past  Vis(m), Cloud(base in m), Weather
  local        km/h                         9am  last   hr   10m    
Tue 12:00   NW  6/ 15  36.3 20.5  1006.9    0.0   0.0   0.0   0.0   10000 
Tue 12:30    N 11/ 20  36.9 20.6  1006.2    0.0   0.0   0.0   0.0   10000 
Tue 12:30    N 11/ 20  36.9 20.6  1006.2    0.0   0.0  ----   0.0   10000 
Tue 13:00    N 15/ 24  37.2 20.9  1005.8    0.0   0.0   0.0   0.0   10000|BR1920 
Tue 13:00    N 15/ 24  37.2 20.9  1005.8    0.0   0.0  ----   0.0   10000|BR1920 
Tue 13:30  WNW 19/ 22  37.6 21.3  1005.5    0.0   0.0   0.0   0.0   10000|SC1920 
Tue 14:00  WNW 19/ 22  36.5 20.7  1005.3    0.0   0.0   0.0   0.0   10000|SC1980 
Tue 14:30    N 11/ 19  36.7 20.1  1005.0    0.0   0.0   0.0   0.0   10000 
Tue 15:00  WNW 13/ 17  36.6 20.0  1004.8    0.0   0.0   0.0   0.0   10000 
Tue 15:30   NW 15/ 19  36.4 19.4  1004.7    0.0   0.0   0.0   0.0   10000 
Tue 16:00  NNW 15/ 19  36.2 20.4  1004.8    0.0   0.0   0.0   0.0   10000 
Tue 16:30  NNW 13/ 17  36.2 19.2  1004.8    0.0   0.0   0.0   0.0   10000 
Tue 16:30  NNW 13/ 17  36.2 19.2  1004.8    0.0   0.0  ----   0.0   10000 
Tue 16:30  NNW 13/ 17  36.2 19.2  1004.8    0.0   0.0  ----   0.0   10000 
Tue 16:30  NNW 13/ 17  36.2 19.2  1004.8    0.0   0.0  ----   0.0   10000 
Tue 17:00  NNW 13/ 15  35.6 19.9  1005.1    0.0   0.0   0.0   0.0   10000 
Tue 17:30    N  9/ 11  33.9 21.3  1005.6    0.0   0.0   0.0   0.0   10000 

KUNUNURRA AG STATION

Site: 002GKN
Alt: m
km of


  Time     Wind        Temp  DP   Baro     Rain since   Rain past  Vis(m), Cloud(base in m), Weather
  local        km/h                         9am  last   hr   10m    
Tue 12:00    N  7/ 17  36.4 20.2  ------    0.0   0.0   0.0   0.0   ----- 
Tue 12:30    N  7/ 17  36.7 19.4  ------    0.0   0.0   0.0   0.0   ----- 
Tue 13:00  WNW  7/ 15  37.3 19.8  ------    0.0   0.0   0.0   0.0   ----- 
Tue 13:30    W  7/ 19  36.9 19.5  ------    0.0   0.0   0.0   0.0   ----- 
Tue 13:30    W  7/ 19  36.9 19.5  ------    0.0   0.0  ----   0.0   ----- 
Tue 14:00    W  4/  9  36.9 20.0  ------    0.0   0.0   0.0   0.0   ----- 
Tue 14:30  WNW  6/ 11  36.5 19.5  ------    0.0   0.0   0.0   0.0   ----- 
Tue 14:30  WNW  6/ 11  36.5 19.5  ------    0.0   0.0  ----   0.0   ----- 
Tue 15:00    W  6/ 13  36.6 19.5  ------    0.0   0.0   0.0   0.0   ----- 
Tue 15:30   NW  4/ 11  36.3 19.7  ------    0.0   0.0   0.0   0.0   ----- 
Tue 15:30   NW  4/ 11  36.3 19.7  ------    0.0   0.0  ----   0.0   ----- 
Tue 16:30   NW  6/ 11  35.8 20.0  ------    0.0   0.0   0.0   0.0   ----- 
Tue 17:00   NW  6/ 11  35.5 20.1  ------    0.0   0.0  ----   0.0   -----